createdAt,value
2023-01-12T00:01:31.772Z,8.51
2023-01-12T00:03:58.418Z,8.68
2023-01-12T00:06:26.130Z,8.40
2023-01-12T00:08:53.281Z,8.54
2023-01-12T00:11:20.256Z,8.71
2023-01-12T00:13:46.999Z,8.63
2023-01-12T00:16:24.753Z,8.53
2023-01-12T00:18:52.456Z,8.72
2023-01-12T00:21:18.816Z,8.76
2023-01-12T00:23:45.308Z,9.06
2023-01-12T00:26:11.969Z,8.93
2023-01-12T00:28:38.550Z,8.95
2023-01-12T00:31:07.832Z,9.04
2023-01-12T00:33:35.572Z,8.88
2023-01-12T00:36:04.686Z,8.90
2023-01-12T00:38:31.356Z,9.09
2023-01-12T00:40:57.837Z,9.22
2023-01-12T00:43:24.326Z,9.21
2023-01-12T00:45:51.222Z,9.15
2023-01-12T00:48:17.751Z,8.98
2023-01-12T00:50:44.485Z,9.24
2023-01-12T00:53:10.899Z,9.24
2023-01-12T00:55:37.385Z,9.12
2023-01-12T00:58:03.842Z,9.05
2023-01-12T01:00:30.382Z,9.13
2023-01-12T01:02:56.887Z,9.06
2023-01-12T01:05:23.402Z,9.15
2023-01-12T01:07:49.833Z,9.12
2023-01-12T01:10:16.901Z,9.03
2023-01-12T01:12:43.338Z,9.04
2023-01-12T01:15:10.392Z,9.12
2023-01-12T01:17:36.727Z,9.25
2023-01-12T01:20:03.418Z,9.24
2023-01-12T01:22:30.105Z,8.99
2023-01-12T01:24:56.471Z,8.92
2023-01-12T01:27:23.169Z,9.40
2023-01-12T01:29:49.570Z,9.43
2023-01-12T01:32:15.908Z,9.35
2023-01-12T01:34:49.004Z,9.31
2023-01-12T01:37:15.534Z,9.37
2023-01-12T01:39:42.101Z,9.35
2023-01-12T01:42:13.519Z,9.28
2023-01-12T01:44:49.815Z,9.45
2023-01-12T01:47:26.592Z,9.42
2023-01-12T01:49:55.794Z,9.30
2023-01-12T01:52:36.759Z,9.38
2023-01-12T01:55:05.995Z,9.37
2023-01-12T01:57:44.447Z,9.44
2023-01-12T02:00:12.564Z,9.57
2023-01-12T02:02:40.355Z,9.40
2023-01-12T02:05:07.324Z,9.55
2023-01-12T02:07:33.948Z,9.66
2023-01-12T02:10:00.805Z,9.47
2023-01-12T02:12:27.139Z,9.50
2023-01-12T02:14:53.667Z,9.56
2023-01-12T02:17:34.552Z,9.32
2023-01-12T02:20:35.177Z,9.52
2023-01-12T02:23:40.482Z,9.51
2023-01-12T02:26:28.679Z,9.34
2023-01-12T02:29:03.905Z,9.20
2023-01-12T02:31:48.933Z,9.47
2023-01-12T02:34:27.272Z,9.21
2023-01-12T02:36:59.370Z,9.16
2023-01-12T02:39:33.211Z,9.39
2023-01-12T02:42:31.082Z,9.53
2023-01-12T02:45:31.530Z,9.52
2023-01-12T02:48:17.873Z,9.40
2023-01-12T02:51:11.603Z,9.28
2023-01-12T02:53:50.194Z,9.24
2023-01-12T02:56:21.189Z,9.47
2023-01-12T02:58:53.680Z,9.44
2023-01-12T03:01:22.096Z,9.59
2023-01-12T03:03:50.535Z,9.70
2023-01-12T03:06:17.853Z,9.55
2023-01-12T03:08:47.709Z,9.56
2023-01-12T03:11:17.170Z,9.44
2023-01-12T03:13:51.194Z,9.67
2023-01-12T03:16:22.342Z,9.43
2023-01-12T03:18:55.837Z,9.50
2023-01-12T03:21:30.057Z,9.72
2023-01-12T03:24:10.212Z,9.48
2023-01-12T03:26:40.526Z,9.54
2023-01-12T03:29:20.387Z,9.70
2023-01-12T03:31:47.084Z,9.71
2023-01-12T03:34:13.756Z,9.67
2023-01-12T03:36:52.788Z,9.77
2023-01-12T03:39:37.454Z,9.73
2023-01-12T03:42:17.205Z,9.56
2023-01-12T03:45:15.449Z,9.80
2023-01-12T03:47:43.743Z,9.71
2023-01-12T03:50:17.089Z,9.75
2023-01-12T03:52:45.849Z,9.80
2023-01-12T03:55:17.092Z,9.67
2023-01-12T03:57:45.018Z,9.60
2023-01-12T04:00:13.346Z,9.84
2023-01-12T04:02:42.454Z,9.83
2023-01-12T04:05:10.219Z,9.73
2023-01-12T04:07:36.534Z,9.72
2023-01-12T04:10:03.086Z,9.71
2023-01-12T04:12:29.392Z,9.80
2023-01-12T04:14:55.934Z,9.60
2023-01-12T04:17:22.422Z,9.72
2023-01-12T04:19:48.868Z,10.01
2023-01-12T04:22:16.009Z,9.76
2023-01-12T04:24:42.317Z,9.86
2023-01-12T04:27:09.080Z,9.96
2023-01-12T04:29:35.862Z,10.02
2023-01-12T04:32:02.662Z,9.94
2023-01-12T04:34:29.060Z,9.83
2023-01-12T04:36:55.582Z,9.85
2023-01-12T04:39:21.976Z,9.92
2023-01-12T04:41:48.304Z,9.58
2023-01-12T04:44:14.750Z,9.79
2023-01-12T04:46:41.082Z,9.77
2023-01-12T04:49:07.709Z,9.79
2023-01-12T04:51:34.114Z,10.03
2023-01-12T04:54:00.599Z,10.02
2023-01-12T04:56:27.263Z,9.76
2023-01-12T04:58:57.378Z,10.00
2023-01-12T05:01:24.214Z,9.94
2023-01-12T05:03:50.731Z,9.94
2023-01-12T05:06:17.103Z,9.97
2023-01-12T05:08:43.796Z,9.93
2023-01-12T05:11:10.128Z,10.00
2023-01-12T05:13:36.459Z,10.17
2023-01-12T05:16:14.859Z,10.01
2023-01-12T05:18:45.273Z,9.94
2023-01-12T05:21:12.955Z,9.66
2023-01-12T05:23:39.562Z,9.94
2023-01-12T05:26:06.844Z,9.95
2023-01-12T05:28:33.392Z,10.16
2023-01-12T05:31:11.951Z,10.01
2023-01-12T05:33:40.619Z,10.14
2023-01-12T05:36:09.468Z,9.93
2023-01-12T05:38:35.892Z,10.05
2023-01-12T05:41:04.639Z,9.94
2023-01-12T05:43:31.174Z,9.99
2023-01-12T05:45:57.891Z,9.90
2023-01-12T05:48:24.283Z,10.05
2023-01-12T05:50:50.669Z,9.97
2023-01-12T05:53:17.451Z,10.08
2023-01-12T05:55:44.137Z,9.92
2023-01-12T05:58:10.451Z,9.93
2023-01-12T06:00:37.146Z,10.07
2023-01-12T06:03:03.667Z,10.06
2023-01-12T06:05:30.205Z,10.03
2023-01-12T06:07:56.526Z,10.02
2023-01-12T06:10:22.987Z,9.99
2023-01-12T06:12:52.241Z,10.20
2023-01-12T06:15:18.686Z,10.13
2023-01-12T06:17:45.005Z,10.12
2023-01-12T06:20:12.076Z,10.12
2023-01-12T06:22:38.539Z,10.21
2023-01-12T06:25:05.658Z,10.09
2023-01-12T06:27:32.443Z,10.17
2023-01-12T06:29:58.843Z,10.26
2023-01-12T06:32:25.456Z,10.29
2023-01-12T06:34:53.773Z,10.33
2023-01-12T06:37:20.250Z,10.14
2023-01-12T06:39:46.933Z,10.21
2023-01-12T06:42:13.335Z,10.19
2023-01-12T06:44:39.876Z,10.22
2023-01-12T06:47:06.462Z,10.25
2023-01-12T06:49:32.870Z,10.32
2023-01-12T06:51:59.738Z,10.29
2023-01-12T06:54:26.234Z,10.26
2023-01-12T06:56:52.723Z,10.27
2023-01-12T06:59:19.102Z,10.21
2023-01-12T07:01:45.673Z,10.31
2023-01-12T07:04:12.226Z,10.26
2023-01-12T07:06:38.900Z,10.23
2023-01-12T07:09:05.332Z,10.14
2023-01-12T07:11:32.021Z,10.32
2023-01-12T07:13:58.534Z,10.26
2023-01-12T07:16:24.930Z,10.40
2023-01-12T07:18:51.307Z,10.31
2023-01-12T07:21:18.007Z,10.35
2023-01-12T07:23:44.350Z,10.30
2023-01-12T07:26:11.203Z,10.27
2023-01-12T07:28:37.880Z,10.45
2023-01-12T07:31:06.209Z,10.45
2023-01-12T07:33:33.222Z,10.48
2023-01-12T07:36:01.419Z,10.37
2023-01-12T07:38:29.369Z,10.28
2023-01-12T07:40:58.778Z,10.31
2023-01-12T07:43:25.190Z,10.41
2023-01-12T07:45:51.592Z,10.27
2023-01-12T07:48:17.981Z,10.42
2023-01-12T07:50:44.291Z,10.16
2023-01-12T07:53:12.193Z,10.38
2023-01-12T07:55:38.547Z,10.18
2023-01-12T07:58:05.283Z,10.31
2023-01-12T08:00:31.801Z,10.41
2023-01-12T08:03:12.150Z,10.13
2023-01-12T08:05:39.166Z,10.12
2023-01-12T08:08:06.827Z,10.03
2023-01-12T08:10:33.309Z,9.88
2023-01-12T08:12:59.636Z,10.37
2023-01-12T08:15:31.777Z,10.09
2023-01-12T08:18:06.060Z,10.16
2023-01-12T08:20:35.053Z,9.80
2023-01-12T08:23:12.875Z,10.02
2023-01-12T08:25:44.050Z,9.78
2023-01-12T08:28:15.902Z,9.85
2023-01-12T08:30:48.899Z,9.91
2023-01-12T08:33:15.999Z,10.01
2023-01-12T08:35:43.273Z,9.94
2023-01-12T08:38:10.440Z,9.89
2023-01-12T08:40:37.334Z,9.91
2023-01-12T08:43:03.778Z,9.83
2023-01-12T08:45:30.258Z,9.84
2023-01-12T08:47:59.701Z,9.94
2023-01-12T08:50:26.391Z,9.95
2023-01-12T08:52:52.995Z,9.79
2023-01-12T08:55:19.693Z,9.91
2023-01-12T08:57:46.210Z,9.79
2023-01-12T09:00:13.263Z,9.83
2023-01-12T09:02:39.803Z,9.79
2023-01-12T09:05:06.491Z,9.65
2023-01-12T09:07:32.977Z,9.71
2023-01-12T09:09:59.555Z,9.81
2023-01-12T09:12:25.975Z,9.79
2023-01-12T09:14:52.405Z,9.81
2023-01-12T09:17:18.854Z,9.79
2023-01-12T09:19:45.269Z,9.85
2023-01-12T09:22:11.644Z,9.66
2023-01-12T09:24:38.726Z,9.73
2023-01-12T09:27:05.186Z,9.57
2023-01-12T09:29:31.693Z,9.57
2023-01-12T09:31:58.176Z,9.68
2023-01-12T09:34:24.704Z,9.69
2023-01-12T09:36:51.137Z,9.73
2023-01-12T09:39:33.021Z,9.59
2023-01-12T09:42:00.147Z,9.72
2023-01-12T09:44:35.074Z,9.67
2023-01-12T09:47:05.123Z,9.56
2023-01-12T09:49:35.916Z,9.62
2023-01-12T09:52:10.252Z,9.69
2023-01-12T09:54:36.757Z,9.45
2023-01-12T09:57:29.107Z,9.58
2023-01-12T10:00:02.895Z,9.41
2023-01-12T10:02:33.453Z,9.43
2023-01-12T10:05:03.616Z,9.46
2023-01-12T10:07:30.042Z,9.36
2023-01-12T10:09:56.561Z,9.29
2023-01-12T10:12:29.222Z,9.43
2023-01-12T10:15:28.054Z,9.36
2023-01-12T10:18:02.472Z,9.37
2023-01-12T10:20:37.087Z,9.30
2023-01-12T10:23:09.856Z,9.27
2023-01-12T10:25:43.610Z,9.07
2023-01-12T10:28:31.382Z,9.12
2023-01-12T10:30:58.312Z,9.11
2023-01-12T10:33:30.627Z,9.22
2023-01-12T10:36:00.621Z,9.21
2023-01-12T10:38:36.118Z,9.30
2023-01-12T10:41:24.302Z,9.37
2023-01-12T10:43:56.506Z,9.34
2023-01-12T10:46:24.921Z,9.42
2023-01-12T10:48:56.090Z,9.40
2023-01-12T10:51:30.778Z,9.44
2023-01-12T10:54:09.324Z,9.53
2023-01-12T10:56:38.200Z,9.55
2023-01-12T10:59:13.706Z,9.44
2023-01-12T11:01:53.370Z,9.47
2023-01-12T11:04:24.672Z,9.57
2023-01-12T11:07:08.977Z,9.47
2023-01-12T11:09:35.537Z,9.58
2023-01-12T11:12:05.358Z,9.50
2023-01-12T11:14:37.133Z,9.62
2023-01-12T11:17:33.167Z,9.62
2023-01-12T11:20:01.877Z,9.59
2023-01-12T11:22:34.959Z,9.53
2023-01-12T11:25:10.145Z,9.60
2023-01-12T11:27:51.169Z,9.38
2023-01-12T11:30:24.632Z,9.55
2023-01-12T11:33:15.875Z,9.41
2023-01-12T11:35:51.480Z,9.54
2023-01-12T11:38:42.767Z,9.47
2023-01-12T11:41:35.406Z,9.41
2023-01-12T11:44:26.742Z,9.44
2023-01-12T11:47:14.953Z,9.49
2023-01-12T11:50:09.406Z,9.54
2023-01-12T11:52:35.977Z,9.54
2023-01-12T11:55:02.979Z,9.58
2023-01-12T11:57:50.613Z,9.61
2023-01-12T12:00:39.682Z,9.57
2023-01-12T12:03:30.932Z,9.61
2023-01-12T12:06:02.683Z,9.70
2023-01-12T12:09:01.169Z,9.67
2023-01-12T12:11:53.563Z,9.91
2023-01-12T12:14:41.200Z,9.73
2023-01-12T12:17:27.331Z,9.79
2023-01-12T12:20:03.475Z,9.78
2023-01-12T12:22:37.314Z,9.58
2023-01-12T12:25:24.792Z,9.77
2023-01-12T12:28:14.050Z,9.58
2023-01-12T12:31:17.853Z,9.92
2023-01-12T12:34:16.072Z,9.83
2023-01-12T12:36:57.735Z,9.81
2023-01-12T12:39:35.890Z,9.83
2023-01-12T12:42:27.013Z,9.83
2023-01-12T12:45:15.040Z,10.02
2023-01-12T12:47:42.261Z,9.95
2023-01-12T12:50:20.246Z,9.88
2023-01-12T12:52:48.824Z,10.05
2023-01-12T12:55:15.577Z,10.02
2023-01-12T12:58:18.833Z,10.11
2023-01-12T13:00:45.315Z,10.03
2023-01-12T13:03:40.747Z,10.06
2023-01-12T13:06:27.380Z,10.08
2023-01-12T13:09:15.238Z,10.22
2023-01-12T13:12:09.804Z,10.17
2023-01-12T13:14:38.856Z,10.16
2023-01-12T13:17:20.613Z,10.28
2023-01-12T13:19:49.150Z,10.25
2023-01-12T13:22:48.093Z,10.16
2023-01-12T13:25:17.478Z,10.41
2023-01-12T13:27:54.107Z,10.45
2023-01-12T13:30:26.919Z,10.37
2023-01-12T13:32:53.471Z,10.38
2023-01-12T13:35:43.401Z,10.29
2023-01-12T13:38:35.135Z,10.33
2023-01-12T13:41:16.334Z,10.38
2023-01-12T13:43:53.533Z,10.33
2023-01-12T13:46:35.726Z,10.44
2023-01-12T13:49:03.057Z,10.50
2023-01-12T13:51:39.384Z,10.43
2023-01-12T13:54:11.497Z,10.50
2023-01-12T13:56:38.213Z,10.54
2023-01-12T13:59:07.260Z,10.58
2023-01-12T14:01:37.302Z,10.45
2023-01-12T14:04:17.420Z,10.66
2023-01-12T14:06:59.965Z,10.47
2023-01-12T14:09:41.444Z,10.71
2023-01-12T14:12:20.311Z,10.59
2023-01-12T14:15:10.966Z,10.85
2023-01-12T14:17:37.932Z,10.81
2023-01-12T14:20:13.850Z,10.76
2023-01-12T14:22:40.426Z,10.72
2023-01-12T14:25:29.355Z,10.85
2023-01-12T14:27:57.079Z,10.90
2023-01-12T14:30:26.433Z,10.92
2023-01-12T14:32:53.804Z,10.89
2023-01-12T14:35:23.504Z,10.90
2023-01-12T14:37:54.086Z,10.90
2023-01-12T14:40:29.343Z,10.75
2023-01-12T14:42:56.249Z,10.96
2023-01-12T14:45:25.962Z,10.94
2023-01-12T14:47:52.315Z,10.91
2023-01-12T14:50:21.638Z,10.94
2023-01-12T14:52:48.980Z,10.83
2023-01-12T14:55:24.557Z,11.13
2023-01-12T14:57:55.017Z,11.14
2023-01-12T15:00:27.935Z,11.10
2023-01-12T15:03:02.797Z,11.02
2023-01-12T15:05:31.608Z,11.08
2023-01-12T15:08:07.982Z,10.97
2023-01-12T15:10:39.644Z,11.04
2023-01-12T15:13:30.613Z,11.02
2023-01-12T15:15:57.221Z,11.12
2023-01-12T15:18:23.694Z,11.00
2023-01-12T15:20:50.011Z,10.93
2023-01-12T15:23:16.431Z,10.84
2023-01-12T15:25:43.028Z,10.76
2023-01-12T15:28:09.493Z,10.61
2023-01-12T15:30:38.369Z,10.50
2023-01-12T15:33:05.956Z,10.46
2023-01-12T15:35:32.596Z,10.29
2023-01-12T15:37:59.474Z,10.45
2023-01-12T15:40:27.557Z,10.45
2023-01-12T15:42:54.453Z,10.48
2023-01-12T15:45:27.848Z,10.32
2023-01-12T15:47:54.186Z,10.32
2023-01-12T15:50:20.979Z,10.30
2023-01-12T15:52:48.422Z,10.28
2023-01-12T15:55:18.490Z,10.29
2023-01-12T15:57:45.018Z,10.30
2023-01-12T16:00:16.660Z,10.37
2023-01-12T16:02:46.110Z,10.48
2023-01-12T16:05:13.034Z,10.39
2023-01-12T16:07:39.525Z,10.60
2023-01-12T16:10:06.528Z,10.38
2023-01-12T16:12:32.834Z,10.59
2023-01-12T16:14:59.266Z,10.65
2023-01-12T16:17:25.830Z,10.65
2023-01-12T16:19:53.699Z,10.74
2023-01-12T16:22:23.061Z,10.71
2023-01-12T16:24:50.855Z,10.67
2023-01-12T16:27:19.000Z,10.28
2023-01-12T16:29:45.635Z,10.86
2023-01-12T16:32:12.209Z,10.68
2023-01-12T16:34:39.679Z,10.78
2023-01-12T16:37:10.690Z,10.76
2023-01-12T16:39:37.245Z,10.73
2023-01-12T16:42:04.547Z,10.77
2023-01-12T16:44:32.724Z,10.72
2023-01-12T16:46:59.399Z,10.75
2023-01-12T16:49:26.083Z,10.70
2023-01-12T16:51:52.449Z,10.37
2023-01-12T16:54:18.830Z,10.45
2023-01-12T16:56:45.212Z,10.96
2023-01-12T16:59:11.521Z,10.98
2023-01-12T17:01:38.043Z,10.85
2023-01-12T17:04:04.550Z,10.72
2023-01-12T17:06:31.327Z,10.72
2023-01-12T17:09:01.421Z,10.92
2023-01-12T17:11:28.338Z,10.85
2023-01-12T17:13:56.562Z,10.71
2023-01-12T17:16:26.076Z,10.81
2023-01-12T17:18:52.599Z,10.78
2023-01-12T17:21:19.998Z,10.70
2023-01-12T17:23:46.937Z,10.79
2023-01-12T17:26:16.449Z,10.60
2023-01-12T17:28:43.546Z,10.76
2023-01-12T17:31:13.399Z,10.73
2023-01-12T17:33:40.788Z,10.71
2023-01-12T17:36:09.543Z,10.79
2023-01-12T17:38:37.037Z,10.81
2023-01-12T17:41:11.204Z,10.90
2023-01-12T17:43:37.723Z,10.76
2023-01-12T17:46:04.394Z,11.02
2023-01-12T17:48:30.765Z,10.97
2023-01-12T17:50:57.099Z,10.87
2023-01-12T17:53:23.551Z,10.95
2023-01-12T17:55:51.620Z,10.87
2023-01-12T17:58:18.734Z,10.67
2023-01-12T18:00:45.160Z,11.00
2023-01-12T18:03:11.521Z,11.01
2023-01-12T18:05:38.499Z,11.16
2023-01-12T18:08:04.982Z,11.15
2023-01-12T18:10:31.282Z,11.09
2023-01-12T18:12:57.605Z,10.88
2023-01-12T18:15:24.027Z,10.60
2023-01-12T18:17:50.404Z,11.12
2023-01-12T18:20:16.921Z,11.32
2023-01-12T18:22:43.219Z,11.23
2023-01-12T18:25:09.623Z,11.05
2023-01-12T18:27:36.049Z,11.19
2023-01-12T18:30:02.442Z,11.20
2023-01-12T18:32:28.790Z,11.14
2023-01-12T18:34:55.168Z,11.28
2023-01-12T18:37:21.464Z,11.31
2023-01-12T18:39:49.200Z,11.22
2023-01-12T18:42:15.543Z,11.35
2023-01-12T18:44:41.955Z,11.20
2023-01-12T18:47:16.535Z,11.40
2023-01-12T18:49:43.770Z,11.33
2023-01-12T18:52:11.986Z,11.32
2023-01-12T18:54:38.316Z,11.34
2023-01-12T18:57:04.749Z,11.46
2023-01-12T18:59:31.206Z,11.01
2023-01-12T19:01:57.632Z,11.16
2023-01-12T19:04:24.126Z,11.36
2023-01-12T19:06:50.434Z,11.40
2023-01-12T19:09:16.723Z,11.52
2023-01-12T19:11:43.138Z,11.22
2023-01-12T19:14:10.008Z,11.43
2023-01-12T19:16:36.323Z,11.48
2023-01-12T19:19:02.715Z,11.30
2023-01-12T19:21:29.016Z,11.46
2023-01-12T19:23:55.436Z,11.27
2023-01-12T19:26:21.728Z,11.35
2023-01-12T19:28:48.118Z,11.42
2023-01-12T19:31:14.532Z,11.20
2023-01-12T19:33:41.961Z,10.90
2023-01-12T19:36:10.662Z,11.39
2023-01-12T19:38:38.313Z,11.30
2023-01-12T19:41:07.826Z,11.35
2023-01-12T19:43:34.098Z,11.41
2023-01-12T19:46:01.543Z,11.55
2023-01-12T19:48:28.499Z,11.32
2023-01-12T19:50:54.914Z,11.36
2023-01-12T19:53:23.832Z,11.42
2023-01-12T19:55:50.353Z,11.59
2023-01-12T19:58:17.139Z,11.34
2023-01-12T20:00:45.062Z,11.42
2023-01-12T20:03:13.377Z,11.51
2023-01-12T20:05:41.116Z,11.55
2023-01-12T20:08:08.303Z,11.62
2023-01-12T20:10:35.663Z,11.57
2023-01-12T20:13:01.951Z,11.43
2023-01-12T20:15:28.375Z,11.46
2023-01-12T20:17:54.660Z,11.49
2023-01-12T20:20:21.123Z,11.41
2023-01-12T20:22:49.618Z,11.47
2023-01-12T20:25:16.023Z,11.41
2023-01-12T20:27:42.768Z,11.19
2023-01-12T20:30:10.021Z,11.22
2023-01-12T20:32:36.672Z,11.09
2023-01-12T20:35:06.768Z,10.97
2023-01-12T20:37:34.631Z,10.94
2023-01-12T20:40:01.849Z,10.94
2023-01-12T20:42:28.445Z,10.82
2023-01-12T20:44:54.815Z,10.69
2023-01-12T20:47:21.224Z,10.74
2023-01-12T20:49:47.503Z,11.09
2023-01-12T20:52:14.413Z,10.97
2023-01-12T20:54:40.865Z,11.17
2023-01-12T20:57:08.671Z,11.18
2023-01-12T20:59:34.965Z,11.14
2023-01-12T21:02:01.473Z,10.97
2023-01-12T21:04:27.836Z,11.32
2023-01-12T21:06:54.127Z,11.22
2023-01-12T21:09:20.625Z,11.34
2023-01-12T21:11:47.005Z,11.41
2023-01-12T21:14:13.391Z,11.49
2023-01-12T21:16:39.951Z,11.34
2023-01-12T21:19:06.483Z,11.43
2023-01-12T21:21:32.960Z,11.47
2023-01-12T21:23:59.551Z,11.48
2023-01-12T21:26:25.905Z,11.42
2023-01-12T21:28:52.284Z,11.52
2023-01-12T21:31:18.636Z,11.53
2023-01-12T21:33:45.006Z,11.29
2023-01-12T21:36:13.451Z,11.36
2023-01-12T21:38:40.039Z,11.32
2023-01-12T21:41:07.576Z,11.47
2023-01-12T21:43:34.216Z,11.46
2023-01-12T21:46:09.824Z,11.37
2023-01-12T21:48:36.610Z,11.57
2023-01-12T21:51:08.818Z,11.44
2023-01-12T21:53:35.610Z,11.32
2023-01-12T21:56:04.192Z,11.34
2023-01-12T21:58:34.330Z,11.38
2023-01-12T22:01:07.656Z,11.33
2023-01-12T22:03:33.991Z,11.26
2023-01-12T22:06:04.994Z,11.26
2023-01-12T22:08:34.108Z,11.33
2023-01-12T22:11:05.984Z,11.12
2023-01-12T22:13:33.224Z,11.26
2023-01-12T22:16:08.074Z,11.02
2023-01-12T22:18:34.971Z,11.32
2023-01-12T22:21:02.787Z,11.15
2023-01-12T22:23:29.372Z,11.10
2023-01-12T22:25:55.992Z,11.00
2023-01-12T22:28:22.297Z,10.91
2023-01-12T22:30:48.609Z,11.08
2023-01-12T22:33:15.160Z,10.97
2023-01-12T22:35:41.536Z,11.34
2023-01-12T22:38:07.904Z,11.25
2023-01-12T22:40:34.202Z,11.27
2023-01-12T22:43:00.641Z,11.33
2023-01-12T22:45:26.981Z,11.10
2023-01-12T22:47:54.843Z,11.27
2023-01-12T22:50:22.651Z,11.36
2023-01-12T22:52:52.973Z,11.26
2023-01-12T22:55:21.229Z,11.23
2023-01-12T22:57:48.061Z,11.28
2023-01-12T23:00:17.948Z,11.32
2023-01-12T23:02:45.194Z,11.02
2023-01-12T23:05:11.673Z,11.04
2023-01-12T23:07:38.097Z,11.40
2023-01-12T23:10:05.139Z,11.38
2023-01-12T23:12:31.624Z,11.18
2023-01-12T23:14:58.149Z,11.30
2023-01-12T23:17:24.567Z,11.44
2023-01-12T23:19:50.991Z,11.44
2023-01-12T23:22:17.565Z,11.30
2023-01-12T23:24:44.382Z,11.34
2023-01-12T23:27:11.082Z,11.40
2023-01-12T23:29:37.797Z,11.30
2023-01-12T23:32:04.435Z,11.27
2023-01-12T23:34:31.572Z,11.03
2023-01-12T23:36:58.085Z,11.44
2023-01-12T23:39:24.573Z,11.14
2023-01-12T23:41:51.104Z,11.48
2023-01-12T23:44:17.537Z,11.52
2023-01-12T23:46:44.151Z,11.47
2023-01-12T23:49:11.014Z,11.31
2023-01-12T23:51:37.820Z,11.55
2023-01-12T23:54:04.760Z,11.47
2023-01-12T23:56:33.601Z,11.52
2023-01-12T23:59:00.906Z,11.62
